Terminal Aerodrome Forecast
Issued by NWS

Home | Current Version | Previous Version | Text Only | Print | Product List | Glossary On
Versions: 1 2 3 4 5 6 7 8 9 10 11 12 13 14 15 16 17 18
000
FTUS41 KLWX 300243 AAA
TAFMTN
TAF AMD
KMTN 300243Z 3003/3024 15010KT P6SM BKN250
     FM300400 18009KT P6SM BKN100 WS020/22040KT
     FM300900 20010KT P6SM -RA OVC030
     FM301200 20011KT P6SM OVC040
     FM301400 26012G22KT P6SM BKN040
     FM302300 29008KT P6SM FEW250=

USA.gov is the U.S. government's official web portal to all federal, state and local government web resources and services.